createdAt,value
2022-11-15T00:01:49.871Z,100247.80
2022-11-15T00:04:19.562Z,100245.00
2022-11-15T00:06:48.816Z,100245.40
2022-11-15T00:09:18.310Z,100246.80
2022-11-15T00:11:47.833Z,100237.60
2022-11-15T00:14:17.321Z,100234.60
2022-11-15T00:16:46.980Z,100231.20
2022-11-15T00:19:16.443Z,100231.80
2022-11-15T00:21:45.883Z,100234.80
2022-11-15T00:24:15.563Z,100230.20
2022-11-15T00:26:45.298Z,100232.20
2022-11-15T00:29:14.822Z,100241.80
2022-11-15T00:31:44.267Z,100238.20
2022-11-15T00:34:13.848Z,100225.40
2022-11-15T00:36:43.387Z,100220.60
2022-11-15T00:39:12.977Z,100228.60
2022-11-15T00:41:42.367Z,100221.20
2022-11-15T00:44:11.702Z,100215.80
2022-11-15T00:46:40.911Z,100219.60
2022-11-15T00:49:10.296Z,100224.00
2022-11-15T00:51:39.554Z,100221.40
2022-11-15T00:54:09.219Z,100220.20
2022-11-15T00:56:38.797Z,100222.20
2022-11-15T00:59:08.223Z,100223.80
2022-11-15T01:01:37.515Z,100221.60
2022-11-15T01:04:07.602Z,100219.20
2022-11-15T01:06:37.100Z,100219.80
2022-11-15T01:09:06.711Z,100214.00
2022-11-15T01:11:36.260Z,100212.40
2022-11-15T01:14:05.962Z,100206.80
2022-11-15T01:16:35.499Z,100207.20
2022-11-15T01:19:05.798Z,100212.40
2022-11-15T01:21:35.155Z,100207.20
2022-11-15T01:24:04.557Z,100205.00
2022-11-15T01:26:35.491Z,100204.60
2022-11-15T01:29:05.519Z,100198.00
2022-11-15T01:31:34.959Z,100194.60
2022-11-15T01:34:04.585Z,100192.20
2022-11-15T01:36:34.052Z,100195.20
2022-11-15T01:39:06.975Z,100190.40
2022-11-15T01:41:36.812Z,100188.80
2022-11-15T01:44:47.509Z,100182.60
2022-11-15T01:47:42.510Z,100188.20
2022-11-15T01:50:18.074Z,100181.20
2022-11-15T01:52:48.254Z,100169.40
2022-11-15T01:55:27.157Z,100162.40
2022-11-15T01:58:02.871Z,100153.80
2022-11-15T02:00:33.506Z,100158.80
2022-11-15T02:03:04.670Z,100152.40
2022-11-15T02:05:36.783Z,100148.00
2022-11-15T02:08:08.088Z,100152.20
2022-11-15T02:10:37.423Z,100148.00
2022-11-15T02:13:06.787Z,100153.80
2022-11-15T02:15:53.736Z,100147.40
2022-11-15T02:18:39.041Z,100147.40
2022-11-15T02:21:18.829Z,100147.80
2022-11-15T02:24:33.131Z,100139.80
2022-11-15T02:27:14.284Z,100145.60
2022-11-15T02:30:01.789Z,100140.80
2022-11-15T02:33:13.997Z,100145.00
2022-11-15T02:36:02.426Z,100145.80
2022-11-15T02:39:02.751Z,100143.00
2022-11-15T02:41:53.693Z,100138.00
2022-11-15T02:44:38.552Z,100140.60
2022-11-15T02:47:18.361Z,100138.40
2022-11-15T02:50:03.368Z,100142.60
2022-11-15T02:52:32.849Z,100139.00
2022-11-15T02:55:03.939Z,100129.80
2022-11-15T02:57:54.746Z,100127.60
2022-11-15T03:00:24.072Z,100131.40
2022-11-15T03:03:17.704Z,100138.40
2022-11-15T03:06:11.293Z,100135.00
2022-11-15T03:09:07.915Z,100124.40
2022-11-15T03:11:45.682Z,100127.00
2022-11-15T03:14:31.063Z,100123.20
2022-11-15T03:17:25.250Z,100126.20
2022-11-15T03:20:06.282Z,100115.40
2022-11-15T03:22:41.759Z,100111.00
2022-11-15T03:25:18.964Z,100107.40
2022-11-15T03:27:57.807Z,100103.00
2022-11-15T03:30:27.263Z,100100.80
2022-11-15T03:33:00.545Z,100101.80
2022-11-15T03:35:37.611Z,100100.80
2022-11-15T03:38:28.784Z,100104.00
2022-11-15T03:41:07.555Z,100105.00
2022-11-15T03:43:57.884Z,100103.00
2022-11-15T03:46:41.044Z,100104.60
2022-11-15T03:49:35.424Z,100110.80
2022-11-15T03:52:06.808Z,100103.80
2022-11-15T03:54:35.692Z,100092.40
2022-11-15T03:57:04.622Z,100093.20
2022-11-15T03:59:33.533Z,100093.40
2022-11-15T04:02:02.354Z,100092.80
2022-11-15T04:04:31.245Z,100091.80
2022-11-15T04:07:00.101Z,100084.20
2022-11-15T04:09:29.145Z,100094.00
2022-11-15T04:11:58.236Z,100093.20
2022-11-15T04:14:27.085Z,100088.40
2022-11-15T04:16:55.965Z,100092.60
2022-11-15T04:19:43.440Z,100085.80
2022-11-15T04:22:31.253Z,100082.40
2022-11-15T04:25:00.762Z,100085.00
2022-11-15T04:27:30.320Z,100082.00
2022-11-15T04:29:59.665Z,100083.20
2022-11-15T04:32:28.885Z,100082.00
2022-11-15T04:34:58.451Z,100083.20
2022-11-15T04:37:28.051Z,100082.80
2022-11-15T04:39:57.560Z,100080.80
2022-11-15T04:42:27.159Z,100086.20
2022-11-15T04:44:57.433Z,100090.00
2022-11-15T04:47:26.994Z,100097.60
2022-11-15T04:49:56.697Z,100095.60
2022-11-15T04:52:26.046Z,100091.80
2022-11-15T04:54:55.628Z,100084.20
2022-11-15T04:57:25.313Z,100084.20
2022-11-15T04:59:54.619Z,100077.60
2022-11-15T05:02:23.909Z,100079.20
2022-11-15T05:04:53.120Z,100072.60
2022-11-15T05:07:22.563Z,100072.40
2022-11-15T05:09:52.108Z,100067.40
2022-11-15T05:12:21.695Z,100061.40
2022-11-15T05:14:51.015Z,100055.60
2022-11-15T05:17:20.155Z,100053.80
2022-11-15T05:19:49.360Z,100051.60
2022-11-15T05:22:18.615Z,100052.00
2022-11-15T05:24:47.709Z,100047.80
2022-11-15T05:27:16.994Z,100053.00
2022-11-15T05:29:46.265Z,100054.40
2022-11-15T05:32:15.683Z,100043.00
2022-11-15T05:34:45.536Z,100044.40
2022-11-15T05:37:16.341Z,100053.80
2022-11-15T05:39:45.853Z,100056.60
2022-11-15T05:42:17.592Z,100060.40
2022-11-15T05:44:51.004Z,100058.60
2022-11-15T05:47:28.088Z,100059.40
2022-11-15T05:49:59.202Z,100046.60
2022-11-15T05:52:35.864Z,100043.40
2022-11-15T05:55:11.589Z,100042.20
2022-11-15T05:57:43.696Z,100037.40
2022-11-15T06:00:14.578Z,100034.40
2022-11-15T06:02:43.850Z,100033.80
2022-11-15T06:05:12.916Z,100038.20
2022-11-15T06:07:42.598Z,100046.80
2022-11-15T06:10:12.151Z,100048.80
2022-11-15T06:12:41.190Z,100047.00
2022-11-15T06:15:10.969Z,100051.20
2022-11-15T06:17:43.290Z,100054.80
2022-11-15T06:20:12.813Z,100054.00
2022-11-15T06:22:41.890Z,100052.80
2022-11-15T06:25:10.961Z,100063.80
2022-11-15T06:27:40.009Z,100065.20
2022-11-15T06:30:09.900Z,100070.20
2022-11-15T06:32:39.127Z,100077.00
2022-11-15T06:35:08.887Z,100068.00
2022-11-15T06:37:38.530Z,100063.80
2022-11-15T06:40:10.510Z,100062.20
2022-11-15T06:42:40.329Z,100066.00
2022-11-15T06:45:09.751Z,100066.20
2022-11-15T06:47:47.973Z,100062.80
2022-11-15T06:50:16.796Z,100074.20
2022-11-15T06:52:45.494Z,100079.00
2022-11-15T06:55:14.290Z,100081.40
2022-11-15T06:57:53.849Z,100081.60
2022-11-15T07:00:24.730Z,100078.60
2022-11-15T07:02:53.410Z,100083.80
2022-11-15T07:05:22.120Z,100087.00
2022-11-15T07:07:59.021Z,100092.80
2022-11-15T07:10:29.571Z,100090.20
2022-11-15T07:12:58.450Z,100094.40
2022-11-15T07:15:27.862Z,100088.00
2022-11-15T07:17:56.751Z,100083.60
2022-11-15T07:20:25.390Z,100072.20
2022-11-15T07:23:03.190Z,100063.00
2022-11-15T07:25:33.090Z,100063.80
2022-11-15T07:28:02.874Z,100070.40
2022-11-15T07:30:31.778Z,100062.60
2022-11-15T07:33:02.490Z,100067.60
2022-11-15T07:35:31.857Z,100061.20
2022-11-15T07:38:03.354Z,100063.20
2022-11-15T07:40:33.591Z,100067.20
2022-11-15T07:43:08.392Z,100067.60
2022-11-15T07:45:44.113Z,100058.80
2022-11-15T07:48:13.190Z,100052.60
2022-11-15T07:50:44.912Z,100060.20
2022-11-15T07:53:13.712Z,100052.40
2022-11-15T07:55:43.652Z,100051.60
2022-11-15T07:58:13.919Z,100046.00
2022-11-15T08:00:42.751Z,100046.00
2022-11-15T08:03:15.133Z,100039.60
2022-11-15T08:05:51.039Z,100037.00
2022-11-15T08:08:20.211Z,100038.60
2022-11-15T08:10:48.879Z,100038.00
2022-11-15T08:13:18.233Z,100032.80
2022-11-15T08:15:46.977Z,100030.40
2022-11-15T08:18:18.772Z,100027.40
2022-11-15T08:20:47.538Z,100025.40
2022-11-15T08:23:16.193Z,100023.40
2022-11-15T08:25:45.017Z,100023.20
2022-11-15T08:28:13.818Z,100020.00
2022-11-15T08:30:44.552Z,100013.60
2022-11-15T08:33:15.699Z,100009.80
2022-11-15T08:35:45.612Z,100017.00
2022-11-15T08:38:14.300Z,100021.40
2022-11-15T08:40:43.038Z,100023.40
2022-11-15T08:43:12.006Z,100019.40
2022-11-15T08:45:40.779Z,100014.40
2022-11-15T08:48:09.474Z,100006.40
2022-11-15T08:50:38.411Z,100004.80
2022-11-15T08:53:09.840Z,100000.60
2022-11-15T08:55:40.174Z,99999.00
2022-11-15T08:58:08.792Z,100004.00
2022-11-15T09:00:37.439Z,100003.80
2022-11-15T09:03:08.232Z,100004.60
2022-11-15T09:05:39.971Z,99995.20
2022-11-15T09:08:25.636Z,99989.00
2022-11-15T09:10:57.954Z,99996.60
2022-11-15T09:13:26.611Z,99996.00
2022-11-15T09:16:00.632Z,99990.60
2022-11-15T09:18:30.120Z,99993.20
2022-11-15T09:21:00.590Z,99989.80
2022-11-15T09:23:29.634Z,99990.40
2022-11-15T09:26:04.479Z,99989.80
2022-11-15T09:28:35.092Z,99988.20
2022-11-15T09:31:07.194Z,99988.80
2022-11-15T09:33:36.582Z,99984.60
2022-11-15T09:36:10.812Z,99989.60
2022-11-15T09:38:40.014Z,99991.60
2022-11-15T09:41:14.477Z,99991.20
2022-11-15T09:44:25.292Z,99981.20
2022-11-15T09:47:20.612Z,99976.20
2022-11-15T09:49:59.674Z,99972.40
2022-11-15T09:52:29.413Z,99965.00
2022-11-15T09:54:58.133Z,99964.40
2022-11-15T09:57:58.751Z,99958.60
2022-11-15T10:00:46.323Z,99950.40
2022-11-15T10:03:17.690Z,99946.80
2022-11-15T10:05:53.568Z,99943.20
2022-11-15T10:09:24.170Z,99932.20
2022-11-15T10:11:53.179Z,99931.20
2022-11-15T10:14:26.613Z,99931.80
2022-11-15T10:17:56.031Z,99924.60
2022-11-15T10:20:31.931Z,99927.60
2022-11-15T10:23:06.092Z,99921.80
2022-11-15T10:25:36.671Z,99917.20
2022-11-15T10:28:25.791Z,99912.80
2022-11-15T10:31:00.501Z,99905.20
2022-11-15T10:33:38.854Z,99904.20
2022-11-15T10:36:10.398Z,99895.80
2022-11-15T10:38:51.150Z,99892.40
2022-11-15T10:41:28.707Z,99894.40
2022-11-15T10:44:18.533Z,99886.80
2022-11-15T10:47:05.919Z,99885.40
2022-11-15T10:49:36.342Z,99886.20
2022-11-15T10:52:19.072Z,99878.60
2022-11-15T10:55:17.613Z,99874.80
2022-11-15T10:58:22.751Z,99867.20
2022-11-15T11:00:55.166Z,99862.00
2022-11-15T11:03:39.573Z,99859.80
2022-11-15T11:06:16.332Z,99858.80
2022-11-15T11:09:01.691Z,99854.20
2022-11-15T11:11:52.984Z,99859.40
2022-11-15T11:14:32.487Z,99857.40
2022-11-15T11:17:43.349Z,99859.20
2022-11-15T11:20:33.000Z,99857.80
2022-11-15T11:23:34.358Z,99856.00
2022-11-15T11:26:23.250Z,99850.40
2022-11-15T11:29:19.391Z,99848.20
2022-11-15T11:32:38.855Z,99845.40
2022-11-15T11:35:10.671Z,99838.40
2022-11-15T11:37:56.512Z,99833.20
2022-11-15T11:40:52.595Z,99825.00
2022-11-15T11:43:34.373Z,99819.60
2022-11-15T11:46:26.280Z,99814.20
2022-11-15T11:49:05.873Z,99816.40
2022-11-15T11:51:43.626Z,99812.20
2022-11-15T11:54:32.960Z,99811.40
2022-11-15T11:57:11.390Z,99815.60
2022-11-15T11:59:57.925Z,99812.20
2022-11-15T12:02:39.779Z,99799.60
2022-11-15T12:05:28.890Z,99794.60
2022-11-15T12:08:20.214Z,99793.60
2022-11-15T12:11:03.892Z,99793.00
2022-11-15T12:13:37.992Z,99788.00
2022-11-15T12:16:33.496Z,99785.80
2022-11-15T12:19:08.851Z,99781.20
2022-11-15T12:22:00.250Z,99777.60
2022-11-15T12:24:42.128Z,99775.00
2022-11-15T12:27:40.531Z,99774.80
2022-11-15T12:30:22.700Z,99765.60
2022-11-15T12:33:02.821Z,99762.60
2022-11-15T12:35:38.385Z,99759.60
2022-11-15T12:38:12.785Z,99762.40
2022-11-15T12:41:15.463Z,99761.60
2022-11-15T12:43:48.539Z,99762.60
2022-11-15T12:46:43.027Z,99759.80
2022-11-15T12:49:29.470Z,99757.20
2022-11-15T12:51:58.377Z,99753.80
2022-11-15T12:54:28.526Z,99751.60
2022-11-15T12:57:08.139Z,99749.60
2022-11-15T13:00:03.620Z,99740.00
2022-11-15T13:02:48.891Z,99735.60
2022-11-15T13:05:20.788Z,99727.00
2022-11-15T13:07:49.532Z,99724.20
2022-11-15T13:10:18.157Z,99721.80
2022-11-15T13:12:46.881Z,99723.60
2022-11-15T13:15:18.592Z,99730.60
2022-11-15T13:17:49.769Z,99730.80
2022-11-15T13:20:18.330Z,99726.80
2022-11-15T13:23:13.808Z,99722.80
2022-11-15T13:26:19.289Z,99719.20
2022-11-15T13:28:53.177Z,99716.20
2022-11-15T13:31:38.684Z,99712.80
2022-11-15T13:34:50.558Z,99713.60
2022-11-15T13:37:23.127Z,99715.60
2022-11-15T13:39:52.071Z,99713.80
2022-11-15T13:42:22.868Z,99707.60
2022-11-15T13:45:06.030Z,99703.60
2022-11-15T13:47:34.810Z,99706.40
2022-11-15T13:50:09.664Z,99709.20
2022-11-15T13:52:46.873Z,99706.80
2022-11-15T13:55:26.455Z,99709.60
2022-11-15T13:58:07.461Z,99709.80
2022-11-15T14:00:44.167Z,99709.40
2022-11-15T14:03:33.392Z,99706.80
2022-11-15T14:06:05.152Z,99705.60
2022-11-15T14:08:37.056Z,99699.60
2022-11-15T14:11:18.730Z,99697.60
2022-11-15T14:14:09.758Z,99697.40
2022-11-15T14:16:42.290Z,99694.00
2022-11-15T14:19:35.051Z,99690.20
2022-11-15T14:22:18.170Z,99686.40
2022-11-15T14:25:08.131Z,99687.40
2022-11-15T14:27:36.880Z,99686.60
2022-11-15T14:30:06.296Z,99685.80
2022-11-15T14:33:01.291Z,99681.40
2022-11-15T14:35:30.211Z,99681.00
2022-11-15T14:38:00.651Z,99677.20
2022-11-15T14:40:29.931Z,99679.00
2022-11-15T14:42:58.752Z,99679.20
2022-11-15T14:45:29.233Z,99673.80
2022-11-15T14:47:58.003Z,99669.40
2022-11-15T14:50:27.681Z,99664.40
2022-11-15T14:52:56.431Z,99661.40
2022-11-15T14:55:33.911Z,99661.20
2022-11-15T14:58:09.311Z,99657.00
2022-11-15T15:00:41.480Z,99662.20
2022-11-15T15:03:11.106Z,99659.60
2022-11-15T15:05:43.451Z,99659.40
2022-11-15T15:08:13.254Z,99663.40
2022-11-15T15:10:46.401Z,99668.60
2022-11-15T15:13:25.811Z,99675.20
2022-11-15T15:15:54.611Z,99671.80
2022-11-15T15:18:23.453Z,99672.80
2022-11-15T15:21:08.463Z,99663.20
2022-11-15T15:23:37.211Z,99657.60
2022-11-15T15:26:06.938Z,99659.00
2022-11-15T15:28:38.289Z,99654.80
2022-11-15T15:31:09.357Z,99656.60
2022-11-15T15:33:39.875Z,99648.40
2022-11-15T15:36:19.256Z,99637.80
2022-11-15T15:38:49.652Z,99635.00
2022-11-15T15:41:20.629Z,99630.60
2022-11-15T15:43:49.550Z,99626.60
2022-11-15T15:46:20.830Z,99628.00
2022-11-15T15:48:49.795Z,99624.00
2022-11-15T15:51:20.446Z,99624.80
2022-11-15T15:53:50.070Z,99632.20
2022-11-15T15:56:18.760Z,99636.40
2022-11-15T15:58:47.370Z,99641.80
2022-11-15T16:01:16.347Z,99643.40
2022-11-15T16:03:45.167Z,99646.80
2022-11-15T16:06:36.882Z,99654.20
2022-11-15T16:09:20.810Z,99649.40
2022-11-15T16:11:49.695Z,99651.00
2022-11-15T16:14:18.350Z,99650.80
2022-11-15T16:16:47.132Z,99647.80
2022-11-15T16:19:15.893Z,99651.60
2022-11-15T16:21:44.710Z,99653.80
2022-11-15T16:24:13.692Z,99654.20
2022-11-15T16:26:42.532Z,99646.60
2022-11-15T16:29:12.057Z,99647.20
2022-11-15T16:31:41.097Z,99640.20
2022-11-15T16:34:09.883Z,99645.60
2022-11-15T16:36:38.608Z,99643.20
2022-11-15T16:39:07.899Z,99637.40
2022-11-15T16:41:36.491Z,99631.60
2022-11-15T16:44:05.231Z,99627.60
2022-11-15T16:46:34.072Z,99626.20
2022-11-15T16:49:02.893Z,99626.40
2022-11-15T16:51:31.691Z,99626.60
2022-11-15T16:54:00.391Z,99628.40
2022-11-15T16:56:32.290Z,99628.60
2022-11-15T16:59:02.491Z,99626.20
2022-11-15T17:01:38.912Z,99631.60
2022-11-15T17:04:13.557Z,99638.40
2022-11-15T17:06:44.293Z,99638.60
2022-11-15T17:09:21.531Z,99635.00
2022-11-15T17:11:50.311Z,99638.40
2022-11-15T17:14:19.753Z,99632.80
2022-11-15T17:16:48.679Z,99631.20
2022-11-15T17:19:20.772Z,99628.40
2022-11-15T17:21:50.111Z,99628.00
2022-11-15T17:24:21.388Z,99633.80
2022-11-15T17:26:50.192Z,99638.00
2022-11-15T17:29:19.071Z,99634.00
2022-11-15T17:31:48.360Z,99638.00
2022-11-15T17:34:17.073Z,99633.20
2022-11-15T17:36:45.892Z,99630.40
2022-11-15T17:39:14.612Z,99622.60
2022-11-15T17:41:43.296Z,99622.60
2022-11-15T17:44:12.033Z,99625.20
2022-11-15T17:46:41.134Z,99625.80
2022-11-15T17:49:09.954Z,99624.40
2022-11-15T17:51:38.619Z,99620.40
2022-11-15T17:54:07.412Z,99615.40
2022-11-15T17:56:40.993Z,99611.20
2022-11-15T17:59:14.809Z,99612.00
2022-11-15T18:01:46.093Z,99609.20
2022-11-15T18:04:15.712Z,99609.60
2022-11-15T18:06:44.514Z,99614.20
2022-11-15T18:09:13.492Z,99610.00
2022-11-15T18:11:43.833Z,99610.80
2022-11-15T18:14:15.598Z,99607.60
2022-11-15T18:16:44.531Z,99604.00
2022-11-15T18:19:14.150Z,99602.20
2022-11-15T18:21:58.072Z,99601.20
2022-11-15T18:24:35.656Z,99599.40
2022-11-15T18:27:06.679Z,99588.60
2022-11-15T18:29:38.240Z,99588.00
2022-11-15T18:32:12.757Z,99589.40
2022-11-15T18:34:41.692Z,99593.20
2022-11-15T18:37:10.530Z,99588.80
2022-11-15T18:39:39.253Z,99587.40
2022-11-15T18:42:08.060Z,99589.60
2022-11-15T18:44:37.031Z,99587.00
2022-11-15T18:47:05.752Z,99587.80
2022-11-15T18:49:34.575Z,99588.00
2022-11-15T18:52:03.371Z,99587.80
2022-11-15T18:54:32.280Z,99592.80
2022-11-15T18:57:01.871Z,99588.20
2022-11-15T18:59:31.202Z,99588.20
2022-11-15T19:02:00.272Z,99583.40
2022-11-15T19:04:29.019Z,99587.40
2022-11-15T19:06:58.686Z,99582.60
2022-11-15T19:09:33.141Z,99585.40
2022-11-15T19:12:02.130Z,99581.40
2022-11-15T19:14:31.491Z,99581.00
2022-11-15T19:17:01.288Z,99579.20
2022-11-15T19:19:30.886Z,99585.80
2022-11-15T19:22:01.798Z,99584.00
2022-11-15T19:24:31.391Z,99583.00
2022-11-15T19:27:00.254Z,99578.40
2022-11-15T19:29:29.132Z,99576.60
2022-11-15T19:31:58.291Z,99573.60
2022-11-15T19:34:28.843Z,99572.40
2022-11-15T19:36:58.313Z,99567.80
2022-11-15T19:39:27.238Z,99560.20
2022-11-15T19:41:55.951Z,99564.20
2022-11-15T19:44:26.698Z,99555.00
2022-11-15T19:46:55.375Z,99556.00
2022-11-15T19:49:24.159Z,99551.40
2022-11-15T19:51:52.971Z,99548.00
2022-11-15T19:54:21.633Z,99542.60
2022-11-15T19:56:52.293Z,99536.60
2022-11-15T19:59:22.081Z,99532.40
2022-11-15T20:01:51.611Z,99535.00
2022-11-15T20:04:20.711Z,99532.20
2022-11-15T20:06:49.602Z,99530.20
2022-11-15T20:09:19.211Z,99530.80
2022-11-15T20:11:48.294Z,99531.40
2022-11-15T20:14:17.356Z,99535.80
2022-11-15T20:16:50.130Z,99540.60
2022-11-15T20:19:23.281Z,99538.00
2022-11-15T20:21:52.134Z,99533.60
2022-11-15T20:24:21.839Z,99528.60
2022-11-15T20:26:51.339Z,99528.80
2022-11-15T20:29:20.294Z,99530.40
2022-11-15T20:31:49.332Z,99526.80
2022-11-15T20:34:18.310Z,99522.20
2022-11-15T20:36:47.238Z,99520.40
2022-11-15T20:39:17.095Z,99514.60
2022-11-15T20:41:46.669Z,99510.00
2022-11-15T20:44:15.892Z,99502.60
2022-11-15T20:46:45.111Z,99506.00
2022-11-15T20:49:15.238Z,99509.40
2022-11-15T20:51:44.670Z,99512.60
2022-11-15T20:54:13.553Z,99515.00
2022-11-15T20:56:42.805Z,99510.00
2022-11-15T20:59:12.812Z,99508.80
2022-11-15T21:01:43.878Z,99503.80
2022-11-15T21:04:13.110Z,99501.00
2022-11-15T21:06:47.492Z,99496.40
2022-11-15T21:09:35.703Z,99500.80
2022-11-15T21:12:11.595Z,99492.60
2022-11-15T21:14:45.671Z,99492.20
2022-11-15T21:17:15.771Z,99483.00
2022-11-15T21:19:48.699Z,99479.40
2022-11-15T21:22:19.370Z,99474.80
2022-11-15T21:24:48.732Z,99476.60
2022-11-15T21:27:19.378Z,99470.20
2022-11-15T21:29:53.098Z,99466.40
2022-11-15T21:32:22.739Z,99468.40
2022-11-15T21:34:51.615Z,99455.40
2022-11-15T21:37:20.299Z,99459.40
2022-11-15T21:39:51.344Z,99450.80
2022-11-15T21:42:20.947Z,99448.60
2022-11-15T21:44:52.151Z,99448.60
2022-11-15T21:47:20.848Z,99454.60
2022-11-15T21:49:50.618Z,99450.80
2022-11-15T21:52:20.482Z,99448.80
2022-11-15T21:54:49.256Z,99442.20
2022-11-15T21:57:19.991Z,99437.80
2022-11-15T22:00:06.855Z,99444.20
2022-11-15T22:02:35.961Z,99451.80
2022-11-15T22:05:54.733Z,99449.40
2022-11-15T22:08:24.360Z,99455.40
2022-11-15T22:10:53.496Z,99450.80
2022-11-15T22:13:27.245Z,99448.60
2022-11-15T22:15:57.259Z,99446.40
2022-11-15T22:18:26.871Z,99448.40
2022-11-15T22:21:04.668Z,99451.60
2022-11-15T22:23:35.292Z,99451.40
2022-11-15T22:26:06.339Z,99446.60
2022-11-15T22:28:35.929Z,99449.40
2022-11-15T22:31:05.904Z,99444.00
2022-11-15T22:33:36.295Z,99449.80
2022-11-15T22:36:07.083Z,99442.20
2022-11-15T22:38:36.655Z,99444.60
2022-11-15T22:41:06.191Z,99448.00
2022-11-15T22:43:36.814Z,99445.60
2022-11-15T22:46:09.023Z,99442.00
2022-11-15T22:48:40.266Z,99439.20
2022-11-15T22:51:10.880Z,99439.40
2022-11-15T22:53:39.978Z,99432.80
2022-11-15T22:56:10.143Z,99431.00
2022-11-15T22:58:40.344Z,99429.00
